createdAt,value
2017-08-01T00:00:05.540Z,19.07
2017-08-01T00:00:46.084Z,19.04
2017-08-01T00:01:26.617Z,19.04
2017-08-01T00:02:07.154Z,18.99
2017-08-01T00:02:47.690Z,19.04
2017-08-01T00:03:28.222Z,18.99
2017-08-01T00:04:08.764Z,19.06
2017-08-01T00:04:49.309Z,19.08
2017-08-01T00:05:29.842Z,19.04
2017-08-01T00:06:10.368Z,19.04
2017-08-01T00:06:50.909Z,19.04
2017-08-01T00:07:31.446Z,19.06
2017-08-01T00:08:11.991Z,19.06
2017-08-01T00:08:52.505Z,19.04
2017-08-01T00:09:33.028Z,18.99
2017-08-01T00:10:13.570Z,19.08
2017-08-01T00:10:54.126Z,19.06
2017-08-01T00:11:34.655Z,19.11
2017-08-01T00:12:15.193Z,19.07
2017-08-01T00:12:55.726Z,19.06
2017-08-01T00:13:36.264Z,19.07
2017-08-01T00:14:16.798Z,19.11
2017-08-01T00:14:57.337Z,19.07
2017-08-01T00:15:37.877Z,19.08
2017-08-01T00:16:18.406Z,19.14
2017-08-01T00:16:58.945Z,19.19
2017-08-01T00:17:39.472Z,19.14
2017-08-01T00:18:20.018Z,19.14
2017-08-01T00:19:00.551Z,19.14
2017-08-01T00:19:41.086Z,19.21
2017-08-01T00:20:21.712Z,19.16
2017-08-01T00:21:02.228Z,19.21
2017-08-01T00:21:42.837Z,19.18
2017-08-01T00:22:23.467Z,19.18
2017-08-01T00:23:03.992Z,19.18
2017-08-01T00:23:44.529Z,19.14
2017-08-01T00:24:25.075Z,19.14
2017-08-01T00:25:05.612Z,19.14
2017-08-01T00:25:46.146Z,19.14
2017-08-01T00:26:26.690Z,19.14
2017-08-01T00:27:07.231Z,19.14
2017-08-01T00:27:47.771Z,19.19
2017-08-01T00:28:28.312Z,19.13
2017-08-01T00:29:08.866Z,19.16
2017-08-01T00:29:49.400Z,19.18
2017-08-01T00:30:29.936Z,19.16
2017-08-01T00:31:10.478Z,19.04
2017-08-01T00:31:51.015Z,19.13
2017-08-01T00:32:31.551Z,19.1
2017-08-01T00:33:12.097Z,19.04
2017-08-01T00:33:52.626Z,19.08
2017-08-01T00:34:33.160Z,19.04
2017-08-01T00:35:13.690Z,19.02
2017-08-01T00:35:54.225Z,19.07
2017-08-01T00:36:34.773Z,19.06
2017-08-01T00:37:15.308Z,19.02
2017-08-01T00:37:55.856Z,19.06
2017-08-01T00:38:36.400Z,19.13
2017-08-01T00:39:16.946Z,19.02
2017-08-01T00:39:57.487Z,19.06
2017-08-01T00:40:38.017Z,19.04
2017-08-01T00:41:18.563Z,19.08
2017-08-01T00:41:59.097Z,19.07
2017-08-01T00:42:39.639Z,18.99
2017-08-01T00:43:20.177Z,19.02
2017-08-01T00:44:00.724Z,18.91
2017-08-01T00:44:41.259Z,18.92
2017-08-01T00:45:21.805Z,18.92
2017-08-01T00:46:02.347Z,18.98
2017-08-01T00:46:42.886Z,18.94
2017-08-01T00:47:23.421Z,18.92
2017-08-01T00:48:03.956Z,19
2017-08-01T00:48:44.506Z,19.02
2017-08-01T00:49:25.034Z,18.95
2017-08-01T00:50:05.583Z,19.07
2017-08-01T00:50:46.120Z,19.02
2017-08-01T00:51:26.665Z,19.04
2017-08-01T00:52:07.205Z,19.02
2017-08-01T00:52:47.744Z,19.04
2017-08-01T00:53:28.275Z,18.99
2017-08-01T00:54:08.812Z,19.07
2017-08-01T00:54:49.352Z,19.11
2017-08-01T00:55:29.877Z,19
2017-08-01T00:56:10.422Z,19.04
2017-08-01T00:56:50.966Z,19.07
2017-08-01T00:57:31.505Z,19.08
2017-08-01T00:58:12.039Z,19.11
2017-08-01T00:58:52.578Z,19.04
2017-08-01T00:59:33.124Z,19.11
2017-08-01T01:00:13.666Z,19.06
2017-08-01T01:00:54.205Z,19
2017-08-01T01:01:34.745Z,19.02
2017-08-01T01:02:15.276Z,19.06
2017-08-01T01:02:55.802Z,19.02
2017-08-01T01:03:36.335Z,19.1
2017-08-01T01:04:16.878Z,19.08
2017-08-01T01:04:57.408Z,19.04
2017-08-01T01:05:37.949Z,19.06
2017-08-01T01:06:18.489Z,19.02
2017-08-01T01:06:59.027Z,19.07
2017-08-01T01:07:39.567Z,19.04
2017-08-01T01:08:20.106Z,19.04
2017-08-01T01:09:00.645Z,19.04
2017-08-01T01:09:41.181Z,19.04
2017-08-01T01:10:21.726Z,19.1
2017-08-01T01:11:02.267Z,19.1
2017-08-01T01:11:42.810Z,19.14
2017-08-01T01:12:23.357Z,19.08
2017-08-01T01:13:03.898Z,19.11
2017-08-01T01:13:44.441Z,19.14
2017-08-01T01:14:24.973Z,19.08
2017-08-01T01:15:05.521Z,19.19
2017-08-01T01:15:46.047Z,19.07
2017-08-01T01:16:26.587Z,19.14
2017-08-01T01:17:07.129Z,19.19
2017-08-01T01:17:47.665Z,19.16
2017-08-01T01:18:28.202Z,19.16
2017-08-01T01:19:08.740Z,19.08
2017-08-01T01:19:49.288Z,19.14
2017-08-01T01:20:29.831Z,19.06
2017-08-01T01:21:10.371Z,19.1
2017-08-01T01:21:50.905Z,19.08
2017-08-01T01:22:31.441Z,19.08
2017-08-01T01:23:11.979Z,19.02
2017-08-01T01:23:52.518Z,19.19
2017-08-01T01:24:33.091Z,19.08
2017-08-01T01:25:13.616Z,19.16
2017-08-01T01:25:54.152Z,19.08
2017-08-01T01:26:34.681Z,19.14
2017-08-01T01:27:15.212Z,19.1
2017-08-01T01:27:55.756Z,19.14
2017-08-01T01:28:36.292Z,19.16
2017-08-01T01:29:16.832Z,19.07
2017-08-01T01:29:57.372Z,19.13
2017-08-01T01:30:37.911Z,19.14
2017-08-01T01:31:18.448Z,19.18
2017-08-01T01:31:58.992Z,19.07
2017-08-01T01:32:39.516Z,19.11
2017-08-01T01:33:20.052Z,19.08
2017-08-01T01:34:00.595Z,19.06
2017-08-01T01:34:41.124Z,19.08
2017-08-01T01:35:21.654Z,19.14
2017-08-01T01:36:02.189Z,19.06
2017-08-01T01:36:42.720Z,19.07
2017-08-01T01:37:23.283Z,19.04
2017-08-01T01:38:03.808Z,19.18
2017-08-01T01:38:44.348Z,19.14
2017-08-01T01:39:24.885Z,19.18
2017-08-01T01:40:05.432Z,19.1
2017-08-01T01:40:45.988Z,19.07
2017-08-01T01:41:26.533Z,19.02
2017-08-01T01:42:07.072Z,19.06
2017-08-01T01:42:47.614Z,19.07
2017-08-01T01:43:28.154Z,19.08
2017-08-01T01:44:08.694Z,19.02
2017-08-01T01:44:49.228Z,19.02
2017-08-01T01:45:29.767Z,19.1
2017-08-01T01:46:10.312Z,19.08
2017-08-01T01:46:50.840Z,19.04
2017-08-01T01:47:31.370Z,19.02
2017-08-01T01:48:11.998Z,19.11
2017-08-01T01:48:52.533Z,19.06
2017-08-01T01:49:33.206Z,19.04
2017-08-01T01:50:13.747Z,19.08
2017-08-01T01:50:54.285Z,19.02
2017-08-01T01:51:34.819Z,19.07
2017-08-01T01:52:15.347Z,19.08
2017-08-01T01:52:55.877Z,19.1
2017-08-01T01:53:36.419Z,19.04
2017-08-01T01:54:16.950Z,19.04
2017-08-01T01:54:57.485Z,19.11
2017-08-01T01:55:38.037Z,19.11
2017-08-01T01:56:18.577Z,19.1
2017-08-01T01:56:59.115Z,19.07
2017-08-01T01:57:39.638Z,19.08
2017-08-01T01:58:20.183Z,19.07
2017-08-01T01:59:00.721Z,19.08
2017-08-01T01:59:41.259Z,19.1
2017-08-01T02:00:21.798Z,19.06
2017-08-01T02:01:02.341Z,19.18
2017-08-01T02:01:42.878Z,19.23
2017-08-01T02:02:23.428Z,19.14
2017-08-01T02:03:03.958Z,19.16
2017-08-01T02:03:44.500Z,19.18
2017-08-01T02:04:25.041Z,19.13
2017-08-01T02:05:05.578Z,19.07
2017-08-01T02:05:46.103Z,19.18
2017-08-01T02:06:26.643Z,19.18
2017-08-01T02:07:07.163Z,19.1
2017-08-01T02:07:47.700Z,19.16
2017-08-01T02:08:28.242Z,19.06
2017-08-01T02:09:08.782Z,19.18
2017-08-01T02:09:49.317Z,19.11
2017-08-01T02:10:29.849Z,19.07
2017-08-01T02:11:10.385Z,19.13
2017-08-01T02:11:50.920Z,19.02
2017-08-01T02:12:31.466Z,19.07
2017-08-01T02:13:12.004Z,19.06
2017-08-01T02:13:52.548Z,19.06
2017-08-01T02:14:33.095Z,18.99
2017-08-01T02:15:13.626Z,19.02
2017-08-01T02:15:54.154Z,19.08
2017-08-01T02:16:34.698Z,19
2017-08-01T02:17:15.233Z,19.08
2017-08-01T02:17:55.772Z,18.99
2017-08-01T02:18:36.367Z,18.95
2017-08-01T02:19:16.909Z,18.92
2017-08-01T02:19:57.442Z,19.04
2017-08-01T02:20:37.978Z,18.94
2017-08-01T02:21:18.517Z,19.02
2017-08-01T02:21:59.056Z,18.94
2017-08-01T02:22:39.595Z,18.92
2017-08-01T02:23:20.134Z,18.92
2017-08-01T02:24:00.671Z,18.98
2017-08-01T02:24:41.214Z,19
2017-08-01T02:25:21.752Z,18.99
2017-08-01T02:26:02.289Z,18.99
2017-08-01T02:26:42.830Z,18.95
2017-08-01T02:27:23.374Z,18.94
2017-08-01T02:28:03.912Z,18.92
2017-08-01T02:28:44.450Z,18.94
2017-08-01T02:29:24.978Z,18.92
2017-08-01T02:30:05.520Z,18.99
2017-08-01T02:30:46.053Z,18.92
2017-08-01T02:31:26.593Z,18.95
2017-08-01T02:32:07.139Z,18.99
2017-08-01T02:32:47.672Z,18.92
2017-08-01T02:33:28.216Z,18.95
2017-08-01T02:34:08.756Z,18.91
2017-08-01T02:34:49.280Z,18.99
2017-08-01T02:35:29.823Z,18.99
2017-08-01T02:36:10.366Z,18.92
2017-08-01T02:36:50.900Z,18.99
2017-08-01T02:37:31.443Z,18.94
2017-08-01T02:38:11.972Z,18.98
2017-08-01T02:38:52.494Z,18.95
2017-08-01T02:39:33.064Z,18.98
2017-08-01T02:40:13.595Z,18.95
2017-08-01T02:40:54.150Z,18.91
2017-08-01T02:41:34.690Z,19
2017-08-01T02:42:15.225Z,18.92
2017-08-01T02:42:55.765Z,18.94
2017-08-01T02:43:36.302Z,18.94
2017-08-01T02:44:16.844Z,18.95
2017-08-01T02:44:57.398Z,18.99
2017-08-01T02:45:37.936Z,19.02
2017-08-01T02:46:18.475Z,18.99
2017-08-01T02:46:59.006Z,18.94
2017-08-01T02:47:39.541Z,18.98
2017-08-01T02:48:20.070Z,18.99
2017-08-01T02:49:00.612Z,18.92
2017-08-01T02:49:41.154Z,19
2017-08-01T02:50:21.702Z,18.94
2017-08-01T02:51:02.238Z,18.99
2017-08-01T02:51:42.781Z,18.94
2017-08-01T02:52:23.304Z,19
2017-08-01T02:53:03.842Z,19
2017-08-01T02:53:44.373Z,19.06
2017-08-01T02:54:24.906Z,18.98
2017-08-01T02:55:05.441Z,19.04
2017-08-01T02:55:45.972Z,19.06
2017-08-01T02:56:26.511Z,19.04
2017-08-01T02:57:07.042Z,19.02
2017-08-01T02:57:47.599Z,18.99
2017-08-01T02:58:28.115Z,19
2017-08-01T02:59:08.647Z,19.07
2017-08-01T02:59:49.185Z,19.1
2017-08-01T03:00:29.720Z,19.04
2017-08-01T03:01:10.261Z,19.04
2017-08-01T03:01:50.787Z,19.08
2017-08-01T03:02:31.339Z,19.06
2017-08-01T03:03:11.869Z,18.99
2017-08-01T03:03:52.401Z,19.11
2017-08-01T03:04:32.940Z,19.08
2017-08-01T03:05:13.477Z,19.08
2017-08-01T03:05:54.020Z,19.11
2017-08-01T03:06:34.560Z,19.14
2017-08-01T03:07:15.094Z,19.14
2017-08-01T03:07:55.626Z,19.07
2017-08-01T03:08:36.166Z,19.08
2017-08-01T03:09:16.689Z,19.1
2017-08-01T03:09:57.231Z,19.08
2017-08-01T03:10:37.758Z,19.14
2017-08-01T03:11:18.289Z,19.14
2017-08-01T03:11:58.831Z,19.16
2017-08-01T03:12:39.372Z,19.11
2017-08-01T03:13:19.909Z,19.11
2017-08-01T03:14:00.447Z,19.13
2017-08-01T03:14:40.992Z,19.18
2017-08-01T03:15:21.530Z,19.1
2017-08-01T03:16:02.066Z,19.14
2017-08-01T03:16:42.604Z,19.07
2017-08-01T03:17:23.137Z,19.1
2017-08-01T03:18:03.676Z,19.06
2017-08-01T03:18:44.206Z,19.06
2017-08-01T03:19:24.749Z,19.07
2017-08-01T03:20:05.277Z,19.06
2017-08-01T03:20:45.815Z,19.1
2017-08-01T03:21:26.350Z,19.07
2017-08-01T03:22:06.891Z,19.06
2017-08-01T03:22:47.430Z,19.02
2017-08-01T03:23:27.955Z,19.07
2017-08-01T03:24:08.501Z,19.1
2017-08-01T03:24:49.035Z,18.94
2017-08-01T03:25:29.574Z,18.98
2017-08-01T03:26:10.105Z,18.98
2017-08-01T03:26:50.636Z,18.98
2017-08-01T03:27:31.176Z,19.04
2017-08-01T03:28:11.701Z,18.94
2017-08-01T03:28:52.234Z,18.99
2017-08-01T03:29:32.765Z,19.06
2017-08-01T03:30:13.328Z,18.95
2017-08-01T03:30:53.860Z,18.99
2017-08-01T03:31:34.395Z,18.92
2017-08-01T03:32:14.937Z,18.88
2017-08-01T03:32:55.472Z,18.91
2017-08-01T03:33:36.015Z,18.94
2017-08-01T03:34:16.544Z,18.92
2017-08-01T03:34:57.078Z,18.95
2017-08-01T03:35:37.622Z,18.98
2017-08-01T03:36:18.143Z,18.88
2017-08-01T03:36:58.667Z,18.92
2017-08-01T03:37:39.200Z,18.92
2017-08-01T03:38:19.775Z,18.92
2017-08-01T03:39:00.318Z,18.88
2017-08-01T03:39:40.837Z,18.92
2017-08-01T03:40:21.383Z,18.91
2017-08-01T03:41:01.919Z,18.91
2017-08-01T03:41:42.457Z,18.88
2017-08-01T03:42:22.997Z,18.85
2017-08-01T03:43:03.524Z,18.81
2017-08-01T03:43:44.058Z,18.88
2017-08-01T03:44:24.590Z,18.87
2017-08-01T03:45:05.125Z,18.94
2017-08-01T03:45:45.658Z,18.81
2017-08-01T03:46:26.198Z,18.8
2017-08-01T03:47:06.737Z,18.8
2017-08-01T03:47:47.282Z,18.87
2017-08-01T03:48:27.819Z,18.81
2017-08-01T03:49:08.341Z,18.8
2017-08-01T03:49:48.875Z,18.75
2017-08-01T03:50:29.416Z,18.76
2017-08-01T03:51:09.957Z,18.72
2017-08-01T03:51:50.498Z,18.75
2017-08-01T03:52:31.036Z,18.76
2017-08-01T03:53:11.575Z,18.8
2017-08-01T03:53:52.375Z,18.81
2017-08-01T03:54:32.911Z,18.75
2017-08-01T03:55:13.450Z,18.67
2017-08-01T03:55:53.982Z,18.8
2017-08-01T03:56:34.512Z,18.7
2017-08-01T03:57:15.056Z,18.76
2017-08-01T03:57:55.589Z,18.75
2017-08-01T03:58:36.137Z,18.7
2017-08-01T03:59:16.670Z,18.7
2017-08-01T03:59:57.229Z,18.7
2017-08-01T04:00:37.752Z,18.69
2017-08-01T04:01:18.309Z,18.7
2017-08-01T04:01:58.849Z,18.75
2017-08-01T04:02:39.389Z,18.73
2017-08-01T04:03:19.927Z,18.75
2017-08-01T04:04:00.469Z,18.81
2017-08-01T04:04:41.020Z,18.78
2017-08-01T04:05:21.536Z,18.8
2017-08-01T04:06:02.073Z,18.78
2017-08-01T04:06:42.610Z,18.81
2017-08-01T04:07:23.145Z,18.8
2017-08-01T04:08:03.673Z,18.78
2017-08-01T04:08:44.203Z,18.84
2017-08-01T04:09:24.747Z,18.8
2017-08-01T04:10:05.279Z,18.78
2017-08-01T04:10:45.815Z,18.8
2017-08-01T04:11:26.356Z,18.78
2017-08-01T04:12:06.873Z,18.81
2017-08-01T04:12:47.408Z,18.82
2017-08-01T04:13:27.948Z,18.76
2017-08-01T04:14:08.483Z,18.81
2017-08-01T04:14:49.734Z,18.81
2017-08-01T04:15:30.206Z,18.76
2017-08-01T04:16:10.721Z,18.81
2017-08-01T04:16:51.216Z,18.8
2017-08-01T04:17:31.727Z,18.76
2017-08-01T04:18:12.253Z,18.81
2017-08-01T04:18:52.784Z,18.8
2017-08-01T04:19:33.286Z,18.76
2017-08-01T04:20:13.798Z,18.73
2017-08-01T04:20:54.342Z,18.76
2017-08-01T04:21:34.838Z,18.8
2017-08-01T04:22:15.360Z,18.7
2017-08-01T04:22:55.889Z,18.7
2017-08-01T04:23:36.516Z,18.84
2017-08-01T04:24:17.106Z,18.8
2017-08-01T04:24:57.631Z,18.76
2017-08-01T04:25:38.120Z,18.81
2017-08-01T04:26:18.661Z,18.85
2017-08-01T04:26:59.170Z,18.8
2017-08-01T04:27:39.677Z,18.88
2017-08-01T04:28:20.209Z,18.91
2017-08-01T04:29:00.723Z,18.9
2017-08-01T04:29:41.253Z,18.87
2017-08-01T04:30:21.770Z,18.91
2017-08-01T04:31:02.293Z,18.9
2017-08-01T04:31:42.841Z,18.9
2017-08-01T04:32:23.345Z,18.91
2017-08-01T04:33:03.854Z,18.9
2017-08-01T04:33:44.392Z,18.94
2017-08-01T04:34:24.881Z,18.95
2017-08-01T04:35:05.401Z,18.9
2017-08-01T04:35:45.910Z,18.88
2017-08-01T04:36:26.438Z,18.98
2017-08-01T04:37:06.962Z,18.92
2017-08-01T04:37:47.494Z,18.98
2017-08-01T04:38:27.996Z,18.98
2017-08-01T04:39:08.503Z,19.04
2017-08-01T04:39:49.000Z,18.99
2017-08-01T04:40:29.530Z,18.92
2017-08-01T04:41:10.026Z,18.92
2017-08-01T04:41:50.553Z,18.92
2017-08-01T04:42:31.190Z,18.95
2017-08-01T04:43:11.966Z,18.92
2017-08-01T04:43:52.600Z,18.95
2017-08-01T04:44:33.365Z,19.02
2017-08-01T04:45:15.013Z,18.92
2017-08-01T04:45:55.813Z,18.95
2017-08-01T04:46:36.641Z,18.91
2017-08-01T04:47:17.544Z,19.02
2017-08-01T04:47:58.424Z,18.92
2017-08-01T04:48:39.233Z,19.02
2017-08-01T04:49:20.041Z,18.98
2017-08-01T04:50:00.670Z,18.92
2017-08-01T04:50:41.337Z,18.98
2017-08-01T04:51:21.958Z,18.99
2017-08-01T04:52:02.521Z,19
2017-08-01T04:52:43.039Z,18.99
2017-08-01T04:53:23.556Z,18.9
2017-08-01T04:54:04.193Z,18.91
2017-08-01T04:54:44.746Z,18.98
2017-08-01T04:55:27.143Z,18.92
2017-08-01T04:56:07.666Z,18.95
2017-08-01T04:56:48.199Z,18.88
2017-08-01T04:57:28.717Z,18.9
2017-08-01T04:58:09.274Z,18.88
2017-08-01T04:58:49.791Z,18.9
2017-08-01T04:59:30.329Z,18.82
2017-08-01T05:00:10.847Z,18.82
2017-08-01T05:00:51.362Z,18.81
2017-08-01T05:01:31.900Z,18.76
2017-08-01T05:02:12.420Z,18.75
2017-08-01T05:02:52.961Z,18.73
2017-08-01T05:03:33.490Z,18.75
2017-08-01T05:04:14.012Z,18.78
2017-08-01T05:04:54.561Z,18.75
2017-08-01T05:05:35.081Z,18.76
2017-08-01T05:06:15.605Z,18.65
2017-08-01T05:06:56.134Z,18.72
2017-08-01T05:07:36.648Z,18.58
2017-08-01T05:08:17.199Z,18.65
2017-08-01T05:08:57.695Z,18.63
2017-08-01T05:09:38.248Z,18.7
2017-08-01T05:10:18.758Z,18.6
2017-08-01T05:10:59.285Z,18.63
2017-08-01T05:11:39.817Z,18.67
2017-08-01T05:12:20.347Z,18.58
2017-08-01T05:13:00.861Z,18.63
2017-08-01T05:13:41.386Z,18.6
2017-08-01T05:14:21.915Z,18.57
2017-08-01T05:15:02.435Z,18.65
2017-08-01T05:15:42.955Z,18.62
2017-08-01T05:16:23.487Z,18.66
2017-08-01T05:17:04.014Z,18.54
2017-08-01T05:17:44.547Z,18.67
2017-08-01T05:18:25.065Z,18.62
2017-08-01T05:19:05.574Z,18.72
2017-08-01T05:19:46.114Z,18.62
2017-08-01T05:20:26.638Z,18.65
2017-08-01T05:21:07.149Z,18.6
2017-08-01T05:21:47.676Z,18.6
2017-08-01T05:22:28.195Z,18.62
2017-08-01T05:23:08.715Z,18.63
2017-08-01T05:23:49.256Z,18.65
2017-08-01T05:24:29.811Z,18.67
2017-08-01T05:25:10.329Z,18.65
2017-08-01T05:25:50.868Z,18.65
2017-08-01T05:26:31.395Z,18.65
2017-08-01T05:27:11.916Z,18.69
2017-08-01T05:27:52.447Z,18.69
2017-08-01T05:28:32.980Z,18.62
2017-08-01T05:29:13.492Z,18.69
2017-08-01T05:29:54.002Z,18.72
2017-08-01T05:30:34.533Z,18.7
2017-08-01T05:31:15.061Z,18.75
2017-08-01T05:31:55.557Z,18.66
2017-08-01T05:32:36.147Z,18.75
2017-08-01T05:33:16.634Z,18.8
2017-08-01T05:33:57.187Z,18.67
2017-08-01T05:34:37.713Z,18.7
2017-08-01T05:35:18.230Z,18.7
2017-08-01T05:35:58.747Z,18.73
2017-08-01T05:36:39.247Z,18.7
2017-08-01T05:37:19.770Z,18.72
2017-08-01T05:38:00.321Z,18.72
2017-08-01T05:38:40.850Z,18.72
2017-08-01T05:39:21.368Z,18.7
2017-08-01T05:40:01.895Z,18.69
2017-08-01T05:40:42.409Z,18.67
2017-08-01T05:41:22.955Z,18.7
2017-08-01T05:42:03.464Z,18.65
2017-08-01T05:42:44.094Z,18.81
2017-08-01T05:43:24.624Z,18.82
2017-08-01T05:44:05.151Z,18.76
2017-08-01T05:44:45.682Z,18.78
2017-08-01T05:45:26.223Z,18.81
2017-08-01T05:46:06.734Z,18.8
2017-08-01T05:46:47.274Z,18.9
2017-08-01T05:47:27.793Z,18.9
2017-08-01T05:48:08.330Z,18.81
2017-08-01T05:48:48.874Z,18.84
2017-08-01T05:49:29.407Z,18.9
2017-08-01T05:50:09.932Z,18.9
2017-08-01T05:50:50.444Z,18.92
2017-08-01T05:51:30.971Z,18.9
2017-08-01T05:52:11.507Z,18.9
2017-08-01T05:52:52.021Z,19
2017-08-01T05:53:32.540Z,19
2017-08-01T05:54:13.074Z,18.98
2017-08-01T05:54:53.583Z,19
2017-08-01T05:55:34.115Z,19
2017-08-01T05:56:14.662Z,19.08
2017-08-01T05:56:55.164Z,19.02
2017-08-01T05:57:35.678Z,19.02
2017-08-01T05:58:16.191Z,19.06
2017-08-01T05:58:56.709Z,19.11
2017-08-01T05:59:37.237Z,19.08
2017-08-01T06:00:17.734Z,19.14
2017-08-01T06:00:58.275Z,19.11
2017-08-01T06:01:38.783Z,19.07
2017-08-01T06:02:19.313Z,19.1
2017-08-01T06:02:59.830Z,19.04
2017-08-01T06:03:40.347Z,19.04
2017-08-01T06:04:20.861Z,18.98
2017-08-01T06:05:01.404Z,18.98
2017-08-01T06:05:41.892Z,18.94
2017-08-01T06:06:22.413Z,18.92
2017-08-01T06:07:02.946Z,18.99
2017-08-01T06:07:43.489Z,18.87
2017-08-01T06:08:24.001Z,18.82
2017-08-01T06:09:04.525Z,18.78
2017-08-01T06:09:45.041Z,18.73
2017-08-01T06:10:25.622Z,18.7
2017-08-01T06:11:06.163Z,18.65
2017-08-01T06:11:46.692Z,18.69
2017-08-01T06:12:27.228Z,18.6
2017-08-01T06:13:07.772Z,18.62
2017-08-01T06:13:48.308Z,18.54
2017-08-01T06:14:28.825Z,18.62
2017-08-01T06:15:09.364Z,18.48
2017-08-01T06:15:49.908Z,18.55
2017-08-01T06:16:30.446Z,18.57
2017-08-01T06:17:10.986Z,18.5
2017-08-01T06:17:51.527Z,18.54
2017-08-01T06:18:32.075Z,18.45
2017-08-01T06:19:12.589Z,18.45
2017-08-01T06:19:53.111Z,18.45
2017-08-01T06:20:33.643Z,18.45
2017-08-01T06:21:14.161Z,18.47
2017-08-01T06:21:54.705Z,18.45
2017-08-01T06:22:35.228Z,18.48
2017-08-01T06:23:15.732Z,18.48
2017-08-01T06:23:56.286Z,18.48
2017-08-01T06:24:36.865Z,18.45
2017-08-01T06:25:17.403Z,18.51
2017-08-01T06:25:57.938Z,18.41
2017-08-01T06:26:38.457Z,18.5
2017-08-01T06:27:19.018Z,18.5
2017-08-01T06:27:59.595Z,18.45
2017-08-01T06:28:40.112Z,18.42
2017-08-01T06:29:20.632Z,18.45
2017-08-01T06:30:01.138Z,18.42
2017-08-01T06:30:41.666Z,18.47
2017-08-01T06:31:22.161Z,18.45
2017-08-01T06:32:02.700Z,18.48
2017-08-01T06:32:43.235Z,18.5
2017-08-01T06:33:23.747Z,18.5
2017-08-01T06:34:04.249Z,18.47
2017-08-01T06:34:44.788Z,18.52
2017-08-01T06:35:25.347Z,18.5
2017-08-01T06:36:05.957Z,18.5
2017-08-01T06:36:46.490Z,18.48
2017-08-01T06:37:27.005Z,18.47
2017-08-01T06:38:07.508Z,18.54
2017-08-01T06:38:48.065Z,18.52
2017-08-01T06:39:28.592Z,18.57
2017-08-01T06:40:09.140Z,18.5
2017-08-01T06:40:49.685Z,18.48
2017-08-01T06:41:30.196Z,18.55
2017-08-01T06:42:10.731Z,18.51
2017-08-01T06:42:51.257Z,18.5
2017-08-01T06:43:31.787Z,18.47
2017-08-01T06:44:12.320Z,18.51
2017-08-01T06:44:52.833Z,18.5
2017-08-01T06:45:33.395Z,18.48
2017-08-01T06:46:13.912Z,18.52
2017-08-01T06:46:54.446Z,18.5
2017-08-01T06:47:34.974Z,18.54
2017-08-01T06:48:15.496Z,18.51
2017-08-01T06:48:56.012Z,18.51
2017-08-01T06:49:36.528Z,18.51
2017-08-01T06:50:17.111Z,18.55
2017-08-01T06:50:57.626Z,18.51
2017-08-01T06:51:38.156Z,18.51
2017-08-01T06:52:18.675Z,18.48
2017-08-01T06:52:59.206Z,18.54
2017-08-01T06:53:39.732Z,18.65
2017-08-01T06:54:20.239Z,18.62
2017-08-01T06:55:00.766Z,18.63
2017-08-01T06:55:41.280Z,18.65
2017-08-01T06:56:21.822Z,18.65
2017-08-01T06:57:02.345Z,18.72
2017-08-01T06:57:42.876Z,18.63
2017-08-01T06:58:23.402Z,18.66
2017-08-01T06:59:03.905Z,18.6
2017-08-01T06:59:44.451Z,18.66
2017-08-01T07:00:24.976Z,18.69
2017-08-01T07:01:05.558Z,18.62
2017-08-01T07:01:46.089Z,18.63
2017-08-01T07:02:26.634Z,18.7
2017-08-01T07:03:07.140Z,18.73
2017-08-01T07:03:47.724Z,18.81
2017-08-01T07:04:28.263Z,18.73
2017-08-01T07:05:08.806Z,18.78
2017-08-01T07:05:49.345Z,18.76
2017-08-01T07:06:29.933Z,18.8
2017-08-01T07:07:10.464Z,18.8
2017-08-01T07:07:50.993Z,18.76
2017-08-01T07:08:31.524Z,18.76
2017-08-01T07:09:12.058Z,18.8
2017-08-01T07:09:52.572Z,18.9
2017-08-01T07:10:33.100Z,18.87
2017-08-01T07:11:13.640Z,18.91
2017-08-01T07:11:54.185Z,18.91
2017-08-01T07:12:34.705Z,18.92
2017-08-01T07:13:15.299Z,19
2017-08-01T07:13:55.823Z,18.99
2017-08-01T07:14:36.344Z,18.99
2017-08-01T07:15:16.873Z,18.9
2017-08-01T07:15:57.422Z,19
2017-08-01T07:16:37.942Z,18.99
2017-08-01T07:17:18.479Z,18.92
2017-08-01T07:17:59.029Z,18.99
2017-08-01T07:18:39.560Z,18.91
2017-08-01T07:19:20.090Z,18.98
2017-08-01T07:20:00.608Z,19.02
2017-08-01T07:20:41.127Z,19.02
2017-08-01T07:21:21.648Z,19.04
2017-08-01T07:22:02.180Z,19.11
2017-08-01T07:22:42.716Z,19.08
2017-08-01T07:23:23.232Z,19.1
2017-08-01T07:24:03.837Z,19.14
2017-08-01T07:24:44.340Z,19.07
2017-08-01T07:25:24.859Z,19.14
2017-08-01T07:26:05.432Z,19.14
2017-08-01T07:26:45.951Z,19.14
2017-08-01T07:27:26.462Z,19.19
2017-08-01T07:28:06.989Z,19.13
2017-08-01T07:28:47.561Z,19.14
2017-08-01T07:29:28.101Z,19.16
2017-08-01T07:30:08.636Z,19.14
2017-08-01T07:30:49.160Z,19.14
2017-08-01T07:31:29.709Z,19.16
2017-08-01T07:32:10.236Z,19.14
2017-08-01T07:32:50.774Z,19.14
2017-08-01T07:33:31.325Z,19.18
2017-08-01T07:34:11.856Z,19.16
2017-08-01T07:34:52.375Z,19.08
2017-08-01T07:35:32.904Z,19.06
2017-08-01T07:36:13.428Z,19.04
2017-08-01T07:36:53.940Z,19.06
2017-08-01T07:37:34.467Z,19.04
2017-08-01T07:38:14.990Z,19
2017-08-01T07:38:55.530Z,18.99
2017-08-01T07:39:36.063Z,19.06
2017-08-01T07:40:16.579Z,18.99
2017-08-01T07:40:57.103Z,18.94
2017-08-01T07:41:37.651Z,18.98
2017-08-01T07:42:18.204Z,18.92
2017-08-01T07:42:58.720Z,18.98
2017-08-01T07:43:39.257Z,18.94
2017-08-01T07:44:19.810Z,18.91
2017-08-01T07:45:00.333Z,18.81
2017-08-01T07:45:40.849Z,18.85
2017-08-01T07:46:21.424Z,18.88
2017-08-01T07:47:01.944Z,18.82
2017-08-01T07:47:42.443Z,18.91
2017-08-01T07:48:22.963Z,18.88
2017-08-01T07:49:03.490Z,18.9
2017-08-01T07:49:43.994Z,18.91
2017-08-01T07:50:24.528Z,18.8
2017-08-01T07:51:05.053Z,18.9
2017-08-01T07:51:45.577Z,18.84
2017-08-01T07:52:26.115Z,18.84
2017-08-01T07:53:06.642Z,18.87
2017-08-01T07:53:47.165Z,18.85
2017-08-01T07:54:27.690Z,18.9
2017-08-01T07:55:08.215Z,18.82
2017-08-01T07:55:48.770Z,18.78
2017-08-01T07:56:29.342Z,18.81
2017-08-01T07:57:09.865Z,18.73
2017-08-01T07:57:50.441Z,18.76
2017-08-01T07:58:30.977Z,18.75
2017-08-01T07:59:11.543Z,18.75
2017-08-01T07:59:52.099Z,18.75
2017-08-01T08:00:32.628Z,18.78
2017-08-01T08:01:13.158Z,18.67
2017-08-01T08:01:53.722Z,18.75
2017-08-01T08:02:34.279Z,18.81
2017-08-01T08:03:14.875Z,18.66
2017-08-01T08:03:55.401Z,18.73
2017-08-01T08:04:35.908Z,18.7
2017-08-01T08:05:16.437Z,18.66
2017-08-01T08:05:56.991Z,18.73
2017-08-01T08:06:37.510Z,18.62
2017-08-01T08:07:18.075Z,18.72
2017-08-01T08:07:58.609Z,18.6
2017-08-01T08:08:39.152Z,18.58
2017-08-01T08:09:19.693Z,18.51
2017-08-01T08:10:00.232Z,18.57
2017-08-01T08:10:40.760Z,18.47
2017-08-01T08:11:21.328Z,18.54
2017-08-01T08:12:01.888Z,18.5
2017-08-01T08:12:42.425Z,18.36
2017-08-01T08:13:22.964Z,18.36
2017-08-01T08:14:03.530Z,18.29
2017-08-01T08:14:44.069Z,18.25
2017-08-01T08:15:24.611Z,18.21
2017-08-01T08:16:05.148Z,18.25
2017-08-01T08:16:45.687Z,18.29
2017-08-01T08:17:26.218Z,18.25
2017-08-01T08:18:06.764Z,18.17
2017-08-01T08:18:47.314Z,18.14
2017-08-01T08:19:27.850Z,18.17
2017-08-01T08:20:08.418Z,18.17
2017-08-01T08:20:48.959Z,18.14
2017-08-01T08:21:29.485Z,18.05
2017-08-01T08:22:10.029Z,18.02
2017-08-01T08:22:50.584Z,17.89
2017-08-01T08:23:31.128Z,17.77
2017-08-01T08:24:11.661Z,17.77
2017-08-01T08:24:52.191Z,17.79
2017-08-01T08:25:32.758Z,17.82
2017-08-01T08:26:13.294Z,17.79
2017-08-01T08:26:53.817Z,17.74
2017-08-01T08:27:34.343Z,17.77
2017-08-01T08:28:14.885Z,17.75
2017-08-01T08:28:55.430Z,17.77
2017-08-01T08:29:35.969Z,17.82
2017-08-01T08:30:16.512Z,17.82
2017-08-01T08:30:57.105Z,17.89
2017-08-01T08:31:37.647Z,17.96
2017-08-01T08:32:18.232Z,17.93
2017-08-01T08:32:58.772Z,17.96
2017-08-01T08:33:39.310Z,17.89
2017-08-01T08:34:19.850Z,17.93
2017-08-01T08:35:00.400Z,17.9
2017-08-01T08:35:40.941Z,17.93
2017-08-01T08:36:21.479Z,17.93
2017-08-01T08:37:02.004Z,17.93
2017-08-01T08:37:42.546Z,17.9
2017-08-01T08:38:23.069Z,17.95
2017-08-01T08:39:03.608Z,17.92
2017-08-01T08:39:44.138Z,17.92
2017-08-01T08:40:24.666Z,17.92
2017-08-01T08:41:05.196Z,17.86
2017-08-01T08:41:45.738Z,17.92
2017-08-01T08:42:26.279Z,17.93
2017-08-01T08:43:06.821Z,17.95
2017-08-01T08:43:47.363Z,17.89
2017-08-01T08:44:27.894Z,17.95
2017-08-01T08:45:08.420Z,17.95